sensor_id;sensor_type;location;lat;lon;timestamp;temperature;humidity
5222;DHT22;2630;52.036;8.514;2023-07-20T00:03:32;16.40;99.90
5222;DHT22;2630;52.036;8.514;2023-07-20T00:35:11;16.40;99.90
5222;DHT22;2630;52.036;8.514;2023-07-20T00:37:38;16.40;99.90
5222;DHT22;2630;52.036;8.514;2023-07-20T00:40:04;16.50;99.90
5222;DHT22;2630;52.036;8.514;2023-07-20T00:44:56;16.50;99.90
5222;DHT22;2630;52.036;8.514;2023-07-20T00:54:41;16.60;99.90
5222;DHT22;2630;52.036;8.514;2023-07-20T00:59:36;16.50;99.90
5222;DHT22;2630;52.036;8.514;2023-07-20T01:09:31;16.40;99.90
5222;DHT22;2630;52.036;8.514;2023-07-20T01:27:36;16.30;99.90
5222;DHT22;2630;52.036;8.514;2023-07-20T01:35:34;16.30;99.90
5222;DHT22;2630;52.036;8.514;2023-07-20T01:55:04;16.30;99.90
5222;DHT22;2630;52.036;8.514;2023-07-20T02:02:25;16.20;99.90
5222;DHT22;2630;52.036;8.514;2023-07-20T02:12:09;16.10;99.90
5222;DHT22;2630;52.036;8.514;2023-07-20T02:19:27;16.00;99.90
5222;DHT22;2630;52.036;8.514;2023-07-20T02:34:08;16.00;99.90
5222;DHT22;2630;52.036;8.514;2023-07-20T02:58:34;15.80;99.90
5222;DHT22;2630;52.036;8.514;2023-07-20T03:08:21;15.80;99.90
5222;DHT22;2630;52.036;8.514;2023-07-20T03:10:47;15.80;99.90
5222;DHT22;2630;52.036;8.514;2023-07-20T03:15:39;15.90;99.90
5222;DHT22;2630;52.036;8.514;2023-07-20T03:35:07;16.20;99.90
5222;DHT22;2630;52.036;8.514;2023-07-20T03:57:02;15.60;99.90
5222;DHT22;2630;52.036;8.514;2023-07-20T03:59:28;15.60;99.90
5222;DHT22;2630;52.036;8.514;2023-07-20T04:21:25;15.30;99.90
5222;DHT22;2630;52.036;8.514;2023-07-20T04:36:02;15.40;99.90
5222;DHT22;2630;52.036;8.514;2023-07-20T04:48:14;15.40;99.90
5222;DHT22;2630;52.036;8.514;2023-07-20T05:22:20;16.00;99.90
5222;DHT22;2630;52.036;8.514;2023-07-20T05:29:42;16.10;99.90
5222;DHT22;2630;52.036;8.514;2023-07-20T05:32:08;16.10;99.90
5222;DHT22;2630;52.036;8.514;2023-07-20T05:34:35;16.20;99.90
5222;DHT22;2630;52.036;8.514;2023-07-20T05:44:18;16.00;99.90
5222;DHT22;2630;52.036;8.514;2023-07-20T05:54:02;16.00;99.90
5222;DHT22;2630;52.036;8.514;2023-07-20T05:58:53;16.20;99.90
5222;DHT22;2630;52.036;8.514;2023-07-20T06:03:45;16.30;99.90
5222;DHT22;2630;52.036;8.514;2023-07-20T06:08:37;16.40;99.90
5222;DHT22;2630;52.036;8.514;2023-07-20T06:13:29;17.00;99.90
5222;DHT22;2630;52.036;8.514;2023-07-20T06:15:55;17.30;99.90
5222;DHT22;2630;52.036;8.514;2023-07-20T06:18:23;17.60;99.90
5222;DHT22;2630;52.036;8.514;2023-07-20T06:20:51;17.80;99.90
5222;DHT22;2630;52.036;8.514;2023-07-20T06:23:20;18.00;99.90
5222;DHT22;2630;52.036;8.514;2023-07-20T06:28:13;18.70;99.90
5222;DHT22;2630;52.036;8.514;2023-07-20T06:30:38;18.50;99.90
5222;DHT22;2630;52.036;8.514;2023-07-20T06:33:04;18.40;99.90
5222;DHT22;2630;52.036;8.514;2023-07-20T06:40:23;18.40;99.90
5222;DHT22;2630;52.036;8.514;2023-07-20T06:47:42;18.40;99.90
5222;DHT22;2630;52.036;8.514;2023-07-20T06:50:08;18.40;99.90
5222;DHT22;2630;52.036;8.514;2023-07-20T07:07:14;18.80;99.90
5222;DHT22;2630;52.036;8.514;2023-07-20T07:12:06;18.70;99.90
5222;DHT22;2630;52.036;8.514;2023-07-20T07:14:31;18.60;99.90
5222;DHT22;2630;52.036;8.514;2023-07-20T07:16:57;18.30;99.90
5222;DHT22;2630;52.036;8.514;2023-07-20T07:21:49;18.30;99.90
5222;DHT22;2630;52.036;8.514;2023-07-20T07:26:40;18.50;99.90
5222;DHT22;2630;52.036;8.514;2023-07-20T07:31:34;18.50;99.90
5222;DHT22;2630;52.036;8.514;2023-07-20T07:38:54;18.10;99.90
5222;DHT22;2630;52.036;8.514;2023-07-20T07:41:20;17.90;99.90
5222;DHT22;2630;52.036;8.514;2023-07-20T07:51:05;18.20;99.90
5222;DHT22;2630;52.036;8.514;2023-07-20T08:30:07;18.50;99.90
5222;DHT22;2630;52.036;8.514;2023-07-20T08:47:10;19.50;99.90
5222;DHT22;2630;52.036;8.514;2023-07-20T08:54:31;19.90;99.90
5222;DHT22;2630;52.036;8.514;2023-07-20T08:57:02;19.80;99.90
5222;DHT22;2630;52.036;8.514;2023-07-20T09:02:01;20.50;99.90
5222;DHT22;2630;52.036;8.514;2023-07-20T09:04:27;22.60;99.90
5222;DHT22;2630;52.036;8.514;2023-07-20T09:09:19;28.20;99.90
5222;DHT22;2630;52.036;8.514;2023-07-20T09:11:49;30.80;98.20
5222;DHT22;2630;52.036;8.514;2023-07-20T09:14:14;33.00;90.30
5222;DHT22;2630;52.036;8.514;2023-07-20T09:16:52;33.80;81.90
5222;DHT22;2630;52.036;8.514;2023-07-20T09:19:18;32.40;81.40
5222;DHT22;2630;52.036;8.514;2023-07-20T09:24:12;33.90;78.10
5222;DHT22;2630;52.036;8.514;2023-07-20T09:26:41;35.00;68.00
5222;DHT22;2630;52.036;8.514;2023-07-20T09:29:08;35.70;62.30
5222;DHT22;2630;52.036;8.514;2023-07-20T09:31:37;36.20;64.00
5222;DHT22;2630;52.036;8.514;2023-07-20T09:34:04;36.40;59.50
5222;DHT22;2630;52.036;8.514;2023-07-20T09:36:33;35.10;56.20
5222;DHT22;2630;52.036;8.514;2023-07-20T09:39:00;33.70;59.10
5222;DHT22;2630;52.036;8.514;2023-07-20T09:41:26;32.00;62.10
5222;DHT22;2630;52.036;8.514;2023-07-20T09:43:53;30.40;65.80
5222;DHT22;2630;52.036;8.514;2023-07-20T09:48:52;29.40;69.90
5222;DHT22;2630;52.036;8.514;2023-07-20T09:53:52;32.50;57.00
5222;DHT22;2630;52.036;8.514;2023-07-20T09:58:48;34.40;60.50
5222;DHT22;2630;52.036;8.514;2023-07-20T10:01:18;34.50;57.00
5222;DHT22;2630;52.036;8.514;2023-07-20T10:06:15;34.30;55.10
5222;DHT22;2630;52.036;8.514;2023-07-20T10:08:41;34.80;56.50
5222;DHT22;2630;52.036;8.514;2023-07-20T10:13:39;34.80;53.80
5222;DHT22;2630;52.036;8.514;2023-07-20T10:16:15;31.90;55.40
5222;DHT22;2630;52.036;8.514;2023-07-20T10:21:10;28.70;61.40
5222;DHT22;2630;52.036;8.514;2023-07-20T10:26:02;27.80;71.60
5222;DHT22;2630;52.036;8.514;2023-07-20T10:30:54;29.30;69.50
5222;DHT22;2630;52.036;8.514;2023-07-20T10:33:20;29.30;62.30
5222;DHT22;2630;52.036;8.514;2023-07-20T10:38:57;28.50;62.70
5222;DHT22;2630;52.036;8.514;2023-07-20T10:44:02;27.00;69.30
5222;DHT22;2630;52.036;8.514;2023-07-20T10:49:08;25.80;73.60
5222;DHT22;2630;52.036;8.514;2023-07-20T10:56:51;23.90;79.90
5222;DHT22;2630;52.036;8.514;2023-07-20T11:01:48;23.10;88.40
5222;DHT22;2630;52.036;8.514;2023-07-20T11:06:55;22.90;89.60
5222;DHT22;2630;52.036;8.514;2023-07-20T11:09:22;22.80;92.20
5222;DHT22;2630;52.036;8.514;2023-07-20T11:12:12;22.80;93.20
5222;DHT22;2630;52.036;8.514;2023-07-20T11:14:43;22.80;92.80
5222;DHT22;2630;52.036;8.514;2023-07-20T11:17:15;22.80;91.10
5222;DHT22;2630;52.036;8.514;2023-07-20T11:19:48;22.70;92.00
5222;DHT22;2630;52.036;8.514;2023-07-20T11:22:16;22.60;93.30
5222;DHT22;2630;52.036;8.514;2023-07-20T11:27:08;22.10;90.80
5222;DHT22;2630;52.036;8.514;2023-07-20T11:29:35;21.80;92.20
5222;DHT22;2630;52.036;8.514;2023-07-20T11:34:30;21.60;99.90
5222;DHT22;2630;52.036;8.514;2023-07-20T11:36:56;21.60;99.90
5222;DHT22;2630;52.036;8.514;2023-07-20T11:39:22;21.50;99.90
5222;DHT22;2630;52.036;8.514;2023-07-20T11:41:51;21.40;99.90
5222;DHT22;2630;52.036;8.514;2023-07-20T11:44:17;21.40;99.90
5222;DHT22;2630;52.036;8.514;2023-07-20T11:51:37;21.50;99.90
5222;DHT22;2630;52.036;8.514;2023-07-20T11:54:05;21.40;99.90
5222;DHT22;2630;52.036;8.514;2023-07-20T11:58:58;21.40;99.90
5222;DHT22;2630;52.036;8.514;2023-07-20T12:04:00;21.50;99.90
5222;DHT22;2630;52.036;8.514;2023-07-20T12:06:27;21.50;99.90
5222;DHT22;2630;52.036;8.514;2023-07-20T12:08:57;21.50;99.90
5222;DHT22;2630;52.036;8.514;2023-07-20T12:11:31;21.60;99.90
5222;DHT22;2630;52.036;8.514;2023-07-20T12:13:58;21.60;99.90
5222;DHT22;2630;52.036;8.514;2023-07-20T12:16:27;21.50;99.90
5222;DHT22;2630;52.036;8.514;2023-07-20T12:19:08;21.70;99.90
5222;DHT22;2630;52.036;8.514;2023-07-20T12:21:35;21.80;99.90
5222;DHT22;2630;52.036;8.514;2023-07-20T12:24:06;21.80;99.90
5222;DHT22;2630;52.036;8.514;2023-07-20T12:28:58;21.90;99.90
5222;DHT22;2630;52.036;8.514;2023-07-20T12:31:25;22.00;99.90
5222;DHT22;2630;52.036;8.514;2023-07-20T12:41:12;21.70;98.80
5222;DHT22;2630;52.036;8.514;2023-07-20T12:43:39;21.80;99.90
5222;DHT22;2630;52.036;8.514;2023-07-20T12:48:31;22.20;99.90
5222;DHT22;2630;52.036;8.514;2023-07-20T13:05:35;22.90;99.90
5222;DHT22;2630;52.036;8.514;2023-07-20T13:08:01;23.20;94.80
5222;DHT22;2630;52.036;8.514;2023-07-20T13:12:53;23.40;97.90
5222;DHT22;2630;52.036;8.514;2023-07-20T13:20:11;23.80;93.80
5222;DHT22;2630;52.036;8.514;2023-07-20T13:25:03;23.50;91.60
5222;DHT22;2630;52.036;8.514;2023-07-20T13:29:58;23.00;91.60
5222;DHT22;2630;52.036;8.514;2023-07-20T13:37:17;23.00;93.90
5222;DHT22;2630;52.036;8.514;2023-07-20T13:44:36;23.20;94.60
5222;DHT22;2630;52.036;8.514;2023-07-20T13:47:03;23.30;92.10
5222;DHT22;2630;52.036;8.514;2023-07-20T13:54:26;24.00;91.90
5222;DHT22;2630;52.036;8.514;2023-07-20T13:56:51;24.40;91.70
5222;DHT22;2630;52.036;8.514;2023-07-20T13:59:18;25.00;89.70
5222;DHT22;2630;52.036;8.514;2023-07-20T14:01:43;25.20;90.40
5222;DHT22;2630;52.036;8.514;2023-07-20T14:06:35;25.20;89.80
5222;DHT22;2630;52.036;8.514;2023-07-20T14:11:27;24.20;84.50
5222;DHT22;2630;52.036;8.514;2023-07-20T14:16:23;23.80;91.20
5222;DHT22;2630;52.036;8.514;2023-07-20T14:18:49;23.60;93.20
5222;DHT22;2630;52.036;8.514;2023-07-20T14:21:18;23.30;93.40
5222;DHT22;2630;52.036;8.514;2023-07-20T14:23:51;23.20;94.30
5222;DHT22;2630;52.036;8.514;2023-07-20T14:26:18;23.00;95.50
5222;DHT22;2630;52.036;8.514;2023-07-20T14:28:44;22.70;95.80
5222;DHT22;2630;52.036;8.514;2023-07-20T14:36:02;22.10;98.10
5222;DHT22;2630;52.036;8.514;2023-07-20T14:38:30;21.90;99.90
5222;DHT22;2630;52.036;8.514;2023-07-20T15:05:22;21.40;99.90
5222;DHT22;2630;52.036;8.514;2023-07-20T15:07:47;21.50;99.90
5222;DHT22;2630;52.036;8.514;2023-07-20T15:12:39;21.60;99.90
5222;DHT22;2630;52.036;8.514;2023-07-20T15:15:09;21.70;99.90
5222;DHT22;2630;52.036;8.514;2023-07-20T15:17:36;21.90;99.90
5222;DHT22;2630;52.036;8.514;2023-07-20T15:20:03;22.10;99.90
5222;DHT22;2630;52.036;8.514;2023-07-20T15:22:35;22.10;99.90
5222;DHT22;2630;52.036;8.514;2023-07-20T15:25:04;22.00;99.90
5222;DHT22;2630;52.036;8.514;2023-07-20T15:27:30;22.00;99.90
5222;DHT22;2630;52.036;8.514;2023-07-20T15:29:56;21.90;99.90
5222;DHT22;2630;52.036;8.514;2023-07-20T15:34:48;21.70;99.90
5222;DHT22;2630;52.036;8.514;2023-07-20T15:37:13;21.70;99.90
5222;DHT22;2630;52.036;8.514;2023-07-20T15:54:18;21.20;99.90
5222;DHT22;2630;52.036;8.514;2023-07-20T15:59:11;21.10;99.90
5222;DHT22;2630;52.036;8.514;2023-07-20T16:04:04;21.10;99.90
5222;DHT22;2630;52.036;8.514;2023-07-20T16:21:08;21.00;99.90
5222;DHT22;2630;52.036;8.514;2023-07-20T16:26:00;21.00;99.90
5222;DHT22;2630;52.036;8.514;2023-07-20T16:35:44;20.80;99.90
5222;DHT22;2630;52.036;8.514;2023-07-20T16:38:10;20.80;99.90
5222;DHT22;2630;52.036;8.514;2023-07-20T16:40:36;20.90;99.90
5222;DHT22;2630;52.036;8.514;2023-07-20T16:43:02;20.80;99.90
5222;DHT22;2630;52.036;8.514;2023-07-20T16:47:54;20.80;99.90
5222;DHT22;2630;52.036;8.514;2023-07-20T16:50:20;20.80;99.90
5222;DHT22;2630;52.036;8.514;2023-07-20T16:55:14;20.80;99.90
5222;DHT22;2630;52.036;8.514;2023-07-20T16:57:40;20.80;99.90
5222;DHT22;2630;52.036;8.514;2023-07-20T17:00:07;20.80;99.90
5222;DHT22;2630;52.036;8.514;2023-07-20T17:02:40;20.70;99.90
5222;DHT22;2630;52.036;8.514;2023-07-20T17:05:06;20.60;99.90
5222;DHT22;2630;52.036;8.514;2023-07-20T17:07:38;20.50;99.90
5222;DHT22;2630;52.036;8.514;2023-07-20T17:10:05;20.50;99.90
5222;DHT22;2630;52.036;8.514;2023-07-20T17:14:58;20.40;99.90
5222;DHT22;2630;52.036;8.514;2023-07-20T17:24:42;20.50;99.90
5222;DHT22;2630;52.036;8.514;2023-07-20T17:29:33;20.70;99.90
5222;DHT22;2630;52.036;8.514;2023-07-20T17:39:16;21.10;99.90
5222;DHT22;2630;52.036;8.514;2023-07-20T17:53:55;20.40;99.90
5222;DHT22;2630;52.036;8.514;2023-07-20T18:01:12;20.10;99.90
5222;DHT22;2630;52.036;8.514;2023-07-20T18:06:05;19.90;99.90
5222;DHT22;2630;52.036;8.514;2023-07-20T18:11:04;19.70;99.90
5222;DHT22;2630;52.036;8.514;2023-07-20T18:20:52;19.70;99.90
5222;DHT22;2630;52.036;8.514;2023-07-20T18:28:12;19.70;99.90
5222;DHT22;2630;52.036;8.514;2023-07-20T18:30:39;19.70;99.90
5222;DHT22;2630;52.036;8.514;2023-07-20T18:33:05;19.70;99.90
5222;DHT22;2630;52.036;8.514;2023-07-20T18:37:59;19.70;99.90
5222;DHT22;2630;52.036;8.514;2023-07-20T18:42:53;19.50;99.90
5222;DHT22;2630;52.036;8.514;2023-07-20T18:45:18;19.50;99.90
5222;DHT22;2630;52.036;8.514;2023-07-20T18:50:12;19.30;99.90
5222;DHT22;2630;52.036;8.514;2023-07-20T18:55:05;19.10;99.90
5222;DHT22;2630;52.036;8.514;2023-07-20T18:57:31;19.00;99.90
5222;DHT22;2630;52.036;8.514;2023-07-20T18:59:57;18.90;99.90
5222;DHT22;2630;52.036;8.514;2023-07-20T19:04:52;18.60;99.90
5222;DHT22;2630;52.036;8.514;2023-07-20T19:19:29;17.90;99.90
5222;DHT22;2630;52.036;8.514;2023-07-20T19:43:52;17.20;99.90
5222;DHT22;2630;52.036;8.514;2023-07-20T19:48:44;17.20;99.90
5222;DHT22;2630;52.036;8.514;2023-07-20T19:56:03;17.10;99.90
5222;DHT22;2630;52.036;8.514;2023-07-20T20:35:10;16.40;99.90
5222;DHT22;2630;52.036;8.514;2023-07-20T20:37:36;16.50;99.90
5222;DHT22;2630;52.036;8.514;2023-07-20T20:42:29;16.40;99.90
5222;DHT22;2630;52.036;8.514;2023-07-20T20:44:54;16.60;99.90
5222;DHT22;2630;52.036;8.514;2023-07-20T20:47:21;16.60;99.90
5222;DHT22;2630;52.036;8.514;2023-07-20T20:54:40;16.40;99.90
5222;DHT22;2630;52.036;8.514;2023-07-20T20:57:06;16.40;99.90
5222;DHT22;2630;52.036;8.514;2023-07-20T21:04:29;16.50;99.90
5222;DHT22;2630;52.036;8.514;2023-07-20T21:11:47;16.50;99.90
5222;DHT22;2630;52.036;8.514;2023-07-20T21:26:23;16.60;99.90
5222;DHT22;2630;52.036;8.514;2023-07-20T21:33:41;16.60;99.90
5222;DHT22;2630;52.036;8.514;2023-07-20T21:43:29;16.70;99.90
5222;DHT22;2630;52.036;8.514;2023-07-20T21:50:50;16.70;99.90
5222;DHT22;2630;52.036;8.514;2023-07-20T22:00:35;16.50;99.90
5222;DHT22;2630;52.036;8.514;2023-07-20T22:03:01;16.60;99.90
5222;DHT22;2630;52.036;8.514;2023-07-20T22:07:53;16.60;99.90
5222;DHT22;2630;52.036;8.514;2023-07-20T22:10:21;16.50;99.90
5222;DHT22;2630;52.036;8.514;2023-07-20T22:15:13;16.60;99.90
5222;DHT22;2630;52.036;8.514;2023-07-20T22:17:39;16.60;99.90
5222;DHT22;2630;52.036;8.514;2023-07-20T22:32:16;16.60;99.90
5222;DHT22;2630;52.036;8.514;2023-07-20T22:37:08;16.70;99.90
5222;DHT22;2630;52.036;8.514;2023-07-20T22:42:01;16.80;99.90
5222;DHT22;2630;52.036;8.514;2023-07-20T22:46:53;16.60;99.90
5222;DHT22;2630;52.036;8.514;2023-07-20T22:49:19;16.50;99.90
5222;DHT22;2630;52.036;8.514;2023-07-20T22:51:45;16.50;99.90
5222;DHT22;2630;52.036;8.514;2023-07-20T22:59:03;16.60;99.90
5222;DHT22;2630;52.036;8.514;2023-07-20T23:08:49;16.70;99.90
5222;DHT22;2630;52.036;8.514;2023-07-20T23:13:42;16.70;99.90
5222;DHT22;2630;52.036;8.514;2023-07-20T23:18:34;16.80;99.90
5222;DHT22;2630;52.036;8.514;2023-07-20T23:21:00;16.80;99.90
5222;DHT22;2630;52.036;8.514;2023-07-20T23:30:46;16.80;99.90
5222;DHT22;2630;52.036;8.514;2023-07-20T23:52:48;16.70;99.90
5222;DHT22;2630;52.036;8.514;2023-07-20T23:57:42;16.70;99.90
